sensor_id;sensor_type;location;lat;lon;timestamp;temperature;humidity
29185;DHT22;16233;47.964;-3.842;2022-09-09T00:01:49;15.10;99.90
29185;DHT22;16233;47.964;-3.842;2022-09-09T00:03:55;15.10;99.90
29185;DHT22;16233;47.964;-3.842;2022-09-09T00:06:05;15.10;99.90
29185;DHT22;16233;47.964;-3.842;2022-09-09T00:08:08;15.20;99.90
29185;DHT22;16233;47.964;-3.842;2022-09-09T00:10:19;15.20;99.90
29185;DHT22;16233;47.964;-3.842;2022-09-09T00:12:27;15.20;99.90
29185;DHT22;16233;47.964;-3.842;2022-09-09T00:14:39;15.20;99.90
29185;DHT22;16233;47.964;-3.842;2022-09-09T00:16:50;15.20;99.90
29185;DHT22;16233;47.964;-3.842;2022-09-09T00:19:00;15.20;99.90
29185;DHT22;16233;47.964;-3.842;2022-09-09T00:21:06;15.20;99.90
29185;DHT22;16233;47.964;-3.842;2022-09-09T00:23:14;15.30;99.90
29185;DHT22;16233;47.964;-3.842;2022-09-09T00:25:21;15.30;99.90
29185;DHT22;16233;47.964;-3.842;2022-09-09T00:27:28;15.30;99.90
29185;DHT22;16233;47.964;-3.842;2022-09-09T00:29:37;15.30;99.90
29185;DHT22;16233;47.964;-3.842;2022-09-09T00:31:44;15.40;99.90
29185;DHT22;16233;47.964;-3.842;2022-09-09T00:33:46;15.40;99.90
29185;DHT22;16233;47.964;-3.842;2022-09-09T00:35:48;15.40;99.90
29185;DHT22;16233;47.964;-3.842;2022-09-09T00:37:52;15.40;99.90
29185;DHT22;16233;47.964;-3.842;2022-09-09T00:39:57;15.40;99.90
29185;DHT22;16233;47.964;-3.842;2022-09-09T00:42:10;15.40;99.90
29185;DHT22;16233;47.964;-3.842;2022-09-09T00:44:21;15.40;99.90
29185;DHT22;16233;47.964;-3.842;2022-09-09T00:46:56;15.40;99.90
29185;DHT22;16233;47.964;-3.842;2022-09-09T00:49:13;15.40;99.90
29185;DHT22;16233;47.964;-3.842;2022-09-09T00:51:21;15.40;99.90
29185;DHT22;16233;47.964;-3.842;2022-09-09T00:53:30;15.50;99.90
29185;DHT22;16233;47.964;-3.842;2022-09-09T00:55:40;15.50;99.90
29185;DHT22;16233;47.964;-3.842;2022-09-09T00:57:44;15.50;99.90
29185;DHT22;16233;47.964;-3.842;2022-09-09T00:59:48;15.50;99.90
29185;DHT22;16233;47.964;-3.842;2022-09-09T01:01:49;15.50;99.90
29185;DHT22;16233;47.964;-3.842;2022-09-09T01:03:53;15.50;99.90
29185;DHT22;16233;47.964;-3.842;2022-09-09T01:06:01;15.40;99.90
29185;DHT22;16233;47.964;-3.842;2022-09-09T01:08:08;15.50;99.90
29185;DHT22;16233;47.964;-3.842;2022-09-09T01:10:21;15.40;99.90
29185;DHT22;16233;47.964;-3.842;2022-09-09T01:12:34;15.40;99.90
29185;DHT22;16233;47.964;-3.842;2022-09-09T01:14:42;15.40;99.90
29185;DHT22;16233;47.964;-3.842;2022-09-09T01:16:45;15.40;99.90
29185;DHT22;16233;47.964;-3.842;2022-09-09T01:18:48;15.40;99.90
29185;DHT22;16233;47.964;-3.842;2022-09-09T01:20:58;15.40;99.90
29185;DHT22;16233;47.964;-3.842;2022-09-09T01:23:25;15.40;99.90
29185;DHT22;16233;47.964;-3.842;2022-09-09T01:27:59;15.40;99.90
29185;DHT22;16233;47.964;-3.842;2022-09-09T01:30:04;15.50;99.90
29185;DHT22;16233;47.964;-3.842;2022-09-09T01:34:39;15.50;99.90
29185;DHT22;16233;47.964;-3.842;2022-09-09T01:36:44;15.60;99.90
29185;DHT22;16233;47.964;-3.842;2022-09-09T01:38:47;15.60;99.90
29185;DHT22;16233;47.964;-3.842;2022-09-09T01:40:48;15.60;99.90
29185;DHT22;16233;47.964;-3.842;2022-09-09T01:42:49;15.60;99.90
29185;DHT22;16233;47.964;-3.842;2022-09-09T01:44:51;15.60;99.90
29185;DHT22;16233;47.964;-3.842;2022-09-09T01:46:52;15.60;99.90
29185;DHT22;16233;47.964;-3.842;2022-09-09T01:48:55;15.60;99.90
29185;DHT22;16233;47.964;-3.842;2022-09-09T01:50:57;15.70;99.90
29185;DHT22;16233;47.964;-3.842;2022-09-09T01:52:59;15.60;99.90
29185;DHT22;16233;47.964;-3.842;2022-09-09T01:55:00;15.60;99.90
29185;DHT22;16233;47.964;-3.842;2022-09-09T01:57:08;15.70;99.90
29185;DHT22;16233;47.964;-3.842;2022-09-09T01:59:24;15.70;99.90
29185;DHT22;16233;47.964;-3.842;2022-09-09T02:01:38;15.70;99.90
29185;DHT22;16233;47.964;-3.842;2022-09-09T02:03:47;15.70;99.90
29185;DHT22;16233;47.964;-3.842;2022-09-09T02:05:59;15.70;99.90
29185;DHT22;16233;47.964;-3.842;2022-09-09T02:08:03;15.70;99.90
29185;DHT22;16233;47.964;-3.842;2022-09-09T02:10:11;15.70;99.90
29185;DHT22;16233;47.964;-3.842;2022-09-09T02:12:16;15.60;99.90
29185;DHT22;16233;47.964;-3.842;2022-09-09T02:14:21;15.60;99.90
29185;DHT22;16233;47.964;-3.842;2022-09-09T02:16:27;15.60;99.90
29185;DHT22;16233;47.964;-3.842;2022-09-09T02:18:34;15.60;99.90
29185;DHT22;16233;47.964;-3.842;2022-09-09T02:20:38;15.60;99.90
29185;DHT22;16233;47.964;-3.842;2022-09-09T02:22:40;15.60;99.90
29185;DHT22;16233;47.964;-3.842;2022-09-09T02:24:42;15.50;99.90
29185;DHT22;16233;47.964;-3.842;2022-09-09T02:26:44;15.50;99.90
29185;DHT22;16233;47.964;-3.842;2022-09-09T02:28:47;15.50;99.90
29185;DHT22;16233;47.964;-3.842;2022-09-09T02:30:50;15.50;99.90
29185;DHT22;16233;47.964;-3.842;2022-09-09T02:32:53;15.50;99.90
29185;DHT22;16233;47.964;-3.842;2022-09-09T02:35:00;15.50;99.90
29185;DHT22;16233;47.964;-3.842;2022-09-09T02:37:03;15.50;99.90
29185;DHT22;16233;47.964;-3.842;2022-09-09T02:39:08;15.50;99.90
29185;DHT22;16233;47.964;-3.842;2022-09-09T02:41:09;15.50;99.90
29185;DHT22;16233;47.964;-3.842;2022-09-09T02:43:10;15.50;99.90
29185;DHT22;16233;47.964;-3.842;2022-09-09T02:45:13;15.50;99.90
29185;DHT22;16233;47.964;-3.842;2022-09-09T02:47:26;15.50;99.90
29185;DHT22;16233;47.964;-3.842;2022-09-09T02:49:34;15.50;99.90
29185;DHT22;16233;47.964;-3.842;2022-09-09T02:51:47;15.50;99.90
29185;DHT22;16233;47.964;-3.842;2022-09-09T02:53:50;15.50;99.90
29185;DHT22;16233;47.964;-3.842;2022-09-09T02:55:56;15.50;99.90
29185;DHT22;16233;47.964;-3.842;2022-09-09T02:57:59;15.50;99.90
29185;DHT22;16233;47.964;-3.842;2022-09-09T03:00:03;15.50;99.90
29185;DHT22;16233;47.964;-3.842;2022-09-09T03:02:04;15.50;99.90
29185;DHT22;16233;47.964;-3.842;2022-09-09T03:04:06;15.50;99.90
29185;DHT22;16233;47.964;-3.842;2022-09-09T03:06:07;15.40;99.90
29185;DHT22;16233;47.964;-3.842;2022-09-09T03:08:10;15.50;99.90
29185;DHT22;16233;47.964;-3.842;2022-09-09T03:10:11;15.40;99.90
29185;DHT22;16233;47.964;-3.842;2022-09-09T03:12:12;15.50;99.90
29185;DHT22;16233;47.964;-3.842;2022-09-09T03:14:13;15.50;99.90
29185;DHT22;16233;47.964;-3.842;2022-09-09T03:16:14;15.50;99.90
29185;DHT22;16233;47.964;-3.842;2022-09-09T03:18:15;15.40;99.90
29185;DHT22;16233;47.964;-3.842;2022-09-09T03:20:16;15.50;99.90
29185;DHT22;16233;47.964;-3.842;2022-09-09T03:22:17;15.40;99.90
29185;DHT22;16233;47.964;-3.842;2022-09-09T03:24:20;15.40;99.90
29185;DHT22;16233;47.964;-3.842;2022-09-09T03:26:21;15.30;99.90
29185;DHT22;16233;47.964;-3.842;2022-09-09T03:28:22;15.30;99.90
29185;DHT22;16233;47.964;-3.842;2022-09-09T03:30:23;15.40;99.90
29185;DHT22;16233;47.964;-3.842;2022-09-09T03:32:25;15.40;99.90
29185;DHT22;16233;47.964;-3.842;2022-09-09T03:34:26;15.40;99.90
29185;DHT22;16233;47.964;-3.842;2022-09-09T03:36:27;15.40;99.90
29185;DHT22;16233;47.964;-3.842;2022-09-09T03:38:28;15.40;99.90
29185;DHT22;16233;47.964;-3.842;2022-09-09T03:40:30;15.50;99.90
29185;DHT22;16233;47.964;-3.842;2022-09-09T03:42:31;15.50;99.90
29185;DHT22;16233;47.964;-3.842;2022-09-09T03:44:32;15.50;99.90
29185;DHT22;16233;47.964;-3.842;2022-09-09T03:46:33;15.50;99.90
29185;DHT22;16233;47.964;-3.842;2022-09-09T03:48:34;15.50;99.90
29185;DHT22;16233;47.964;-3.842;2022-09-09T03:50:35;15.50;99.90
29185;DHT22;16233;47.964;-3.842;2022-09-09T03:52:36;15.50;99.90
29185;DHT22;16233;47.964;-3.842;2022-09-09T03:54:37;15.50;99.90
29185;DHT22;16233;47.964;-3.842;2022-09-09T03:56:40;15.50;99.90
29185;DHT22;16233;47.964;-3.842;2022-09-09T03:58:41;15.50;99.90
29185;DHT22;16233;47.964;-3.842;2022-09-09T04:00:42;15.40;99.90
29185;DHT22;16233;47.964;-3.842;2022-09-09T04:02:43;15.40;99.90
29185;DHT22;16233;47.964;-3.842;2022-09-09T04:04:44;15.40;99.90
29185;DHT22;16233;47.964;-3.842;2022-09-09T04:06:45;15.40;99.90
29185;DHT22;16233;47.964;-3.842;2022-09-09T04:08:46;15.30;99.90
29185;DHT22;16233;47.964;-3.842;2022-09-09T04:10:47;15.30;99.90
29185;DHT22;16233;47.964;-3.842;2022-09-09T04:12:50;15.30;99.90
29185;DHT22;16233;47.964;-3.842;2022-09-09T04:14:51;15.20;99.90
29185;DHT22;16233;47.964;-3.842;2022-09-09T04:16:52;15.20;99.90
29185;DHT22;16233;47.964;-3.842;2022-09-09T04:18:53;15.10;99.90
29185;DHT22;16233;47.964;-3.842;2022-09-09T04:20:56;15.20;99.90
29185;DHT22;16233;47.964;-3.842;2022-09-09T04:22:59;15.10;99.90
29185;DHT22;16233;47.964;-3.842;2022-09-09T04:25:00;15.10;99.90
29185;DHT22;16233;47.964;-3.842;2022-09-09T04:27:01;15.00;99.90
29185;DHT22;16233;47.964;-3.842;2022-09-09T04:29:30;15.00;99.90
29185;DHT22;16233;47.964;-3.842;2022-09-09T04:31:32;15.00;99.90
29185;DHT22;16233;47.964;-3.842;2022-09-09T04:33:33;15.00;99.90
29185;DHT22;16233;47.964;-3.842;2022-09-09T04:35:34;15.00;99.90
29185;DHT22;16233;47.964;-3.842;2022-09-09T04:37:35;15.00;99.90
29185;DHT22;16233;47.964;-3.842;2022-09-09T04:39:36;15.00;99.90
29185;DHT22;16233;47.964;-3.842;2022-09-09T04:41:37;15.00;99.90
29185;DHT22;16233;47.964;-3.842;2022-09-09T04:43:38;15.00;99.90
29185;DHT22;16233;47.964;-3.842;2022-09-09T04:45:41;14.90;99.90
29185;DHT22;16233;47.964;-3.842;2022-09-09T04:47:42;15.00;99.90
29185;DHT22;16233;47.964;-3.842;2022-09-09T04:49:43;15.00;99.90
29185;DHT22;16233;47.964;-3.842;2022-09-09T04:51:44;14.90;99.90
29185;DHT22;16233;47.964;-3.842;2022-09-09T04:53:45;14.90;99.90
29185;DHT22;16233;47.964;-3.842;2022-09-09T04:55:46;14.90;99.90
29185;DHT22;16233;47.964;-3.842;2022-09-09T04:57:47;14.90;99.90
29185;DHT22;16233;47.964;-3.842;2022-09-09T04:59:48;14.80;99.90
29185;DHT22;16233;47.964;-3.842;2022-09-09T05:01:51;14.80;99.90
29185;DHT22;16233;47.964;-3.842;2022-09-09T05:03:52;14.80;99.90
29185;DHT22;16233;47.964;-3.842;2022-09-09T05:05:53;14.70;99.90
29185;DHT22;16233;47.964;-3.842;2022-09-09T05:07:54;14.70;99.90
29185;DHT22;16233;47.964;-3.842;2022-09-09T05:09:55;14.70;99.90
29185;DHT22;16233;47.964;-3.842;2022-09-09T05:11:56;14.70;99.90
29185;DHT22;16233;47.964;-3.842;2022-09-09T05:13:57;14.70;99.90
29185;DHT22;16233;47.964;-3.842;2022-09-09T05:15:58;14.70;99.90
29185;DHT22;16233;47.964;-3.842;2022-09-09T05:18:01;14.70;99.90
29185;DHT22;16233;47.964;-3.842;2022-09-09T05:20:02;14.60;99.90
29185;DHT22;16233;47.964;-3.842;2022-09-09T05:22:03;14.60;99.90
29185;DHT22;16233;47.964;-3.842;2022-09-09T05:24:04;14.60;99.90
29185;DHT22;16233;47.964;-3.842;2022-09-09T05:26:06;14.60;99.90
29185;DHT22;16233;47.964;-3.842;2022-09-09T05:28:07;14.60;99.90
29185;DHT22;16233;47.964;-3.842;2022-09-09T05:30:09;14.60;99.90
29185;DHT22;16233;47.964;-3.842;2022-09-09T05:32:10;14.50;99.90
29185;DHT22;16233;47.964;-3.842;2022-09-09T05:34:13;14.50;99.90
29185;DHT22;16233;47.964;-3.842;2022-09-09T05:36:16;14.50;99.90
29185;DHT22;16233;47.964;-3.842;2022-09-09T05:38:17;14.50;99.90
29185;DHT22;16233;47.964;-3.842;2022-09-09T05:40:18;14.50;99.90
29185;DHT22;16233;47.964;-3.842;2022-09-09T05:42:19;14.50;99.90
29185;DHT22;16233;47.964;-3.842;2022-09-09T05:44:20;14.50;99.90
29185;DHT22;16233;47.964;-3.842;2022-09-09T05:46:22;14.40;99.90
29185;DHT22;16233;47.964;-3.842;2022-09-09T05:48:24;14.40;99.90
29185;DHT22;16233;47.964;-3.842;2022-09-09T05:50:26;14.40;99.90
29185;DHT22;16233;47.964;-3.842;2022-09-09T05:52:27;14.40;99.90
29185;DHT22;16233;47.964;-3.842;2022-09-09T05:54:28;14.40;99.90
29185;DHT22;16233;47.964;-3.842;2022-09-09T05:56:29;14.40;99.90
29185;DHT22;16233;47.964;-3.842;2022-09-09T05:58:31;14.40;99.90
29185;DHT22;16233;47.964;-3.842;2022-09-09T06:00:32;14.40;99.90
29185;DHT22;16233;47.964;-3.842;2022-09-09T06:02:33;14.30;99.90
29185;DHT22;16233;47.964;-3.842;2022-09-09T06:04:34;14.30;99.90
29185;DHT22;16233;47.964;-3.842;2022-09-09T06:06:37;14.40;99.90
29185;DHT22;16233;47.964;-3.842;2022-09-09T06:08:40;14.40;99.90
29185;DHT22;16233;47.964;-3.842;2022-09-09T06:10:41;14.40;99.90
29185;DHT22;16233;47.964;-3.842;2022-09-09T06:12:42;14.40;99.90
29185;DHT22;16233;47.964;-3.842;2022-09-09T06:14:43;14.50;99.90
29185;DHT22;16233;47.964;-3.842;2022-09-09T06:16:44;14.60;99.90
29185;DHT22;16233;47.964;-3.842;2022-09-09T06:18:45;14.60;99.90
29185;DHT22;16233;47.964;-3.842;2022-09-09T06:20:54;14.60;99.90
29185;DHT22;16233;47.964;-3.842;2022-09-09T06:22:57;14.70;99.90
29185;DHT22;16233;47.964;-3.842;2022-09-09T06:24:58;14.70;99.90
29185;DHT22;16233;47.964;-3.842;2022-09-09T06:26:59;14.80;99.90
29185;DHT22;16233;47.964;-3.842;2022-09-09T06:29:01;14.80;99.90
29185;DHT22;16233;47.964;-3.842;2022-09-09T06:31:04;14.90;99.90
29185;DHT22;16233;47.964;-3.842;2022-09-09T06:33:06;14.90;99.90
29185;DHT22;16233;47.964;-3.842;2022-09-09T06:35:07;14.90;99.90
29185;DHT22;16233;47.964;-3.842;2022-09-09T06:37:08;15.00;99.90
29185;DHT22;16233;47.964;-3.842;2022-09-09T06:39:10;15.00;99.90
29185;DHT22;16233;47.964;-3.842;2022-09-09T06:41:13;15.00;99.90
29185;DHT22;16233;47.964;-3.842;2022-09-09T06:43:14;15.00;99.90
29185;DHT22;16233;47.964;-3.842;2022-09-09T06:45:15;15.10;99.90
29185;DHT22;16233;47.964;-3.842;2022-09-09T06:47:16;15.10;99.90
29185;DHT22;16233;47.964;-3.842;2022-09-09T06:49:17;15.20;99.90
29185;DHT22;16233;47.964;-3.842;2022-09-09T06:51:20;15.30;99.90
29185;DHT22;16233;47.964;-3.842;2022-09-09T06:53:21;15.40;99.90
29185;DHT22;16233;47.964;-3.842;2022-09-09T06:55:24;15.50;99.90
29185;DHT22;16233;47.964;-3.842;2022-09-09T06:57:25;15.60;99.90
29185;DHT22;16233;47.964;-3.842;2022-09-09T06:59:26;15.70;99.90
29185;DHT22;16233;47.964;-3.842;2022-09-09T07:01:28;15.80;99.90
29185;DHT22;16233;47.964;-3.842;2022-09-09T07:03:29;15.80;99.90
29185;DHT22;16233;47.964;-3.842;2022-09-09T07:05:30;15.90;99.90
29185;DHT22;16233;47.964;-3.842;2022-09-09T07:07:31;15.90;99.90
29185;DHT22;16233;47.964;-3.842;2022-09-09T07:09:31;15.90;99.90
29185;DHT22;16233;47.964;-3.842;2022-09-09T07:11:37;16.00;99.90
29185;DHT22;16233;47.964;-3.842;2022-09-09T07:13:38;16.00;99.90
29185;DHT22;16233;47.964;-3.842;2022-09-09T07:15:39;16.00;99.90
29185;DHT22;16233;47.964;-3.842;2022-09-09T07:17:40;16.10;99.90
29185;DHT22;16233;47.964;-3.842;2022-09-09T07:19:41;16.20;99.90
29185;DHT22;16233;47.964;-3.842;2022-09-09T07:21:43;16.20;99.90
29185;DHT22;16233;47.964;-3.842;2022-09-09T07:23:44;16.30;99.90
29185;DHT22;16233;47.964;-3.842;2022-09-09T07:25:45;16.40;99.90
29185;DHT22;16233;47.964;-3.842;2022-09-09T07:27:48;16.50;99.90
29185;DHT22;16233;47.964;-3.842;2022-09-09T07:29:48;16.60;99.90
29185;DHT22;16233;47.964;-3.842;2022-09-09T07:31:49;16.70;99.90
29185;DHT22;16233;47.964;-3.842;2022-09-09T07:33:50;16.70;99.90
29185;DHT22;16233;47.964;-3.842;2022-09-09T07:35:52;16.70;99.90
29185;DHT22;16233;47.964;-3.842;2022-09-09T07:37:53;16.70;99.90
29185;DHT22;16233;47.964;-3.842;2022-09-09T07:39:54;16.70;99.90
29185;DHT22;16233;47.964;-3.842;2022-09-09T07:41:55;16.70;99.90
29185;DHT22;16233;47.964;-3.842;2022-09-09T07:43:57;16.70;99.90
29185;DHT22;16233;47.964;-3.842;2022-09-09T07:45:59;16.60;99.90
29185;DHT22;16233;47.964;-3.842;2022-09-09T07:48:00;16.60;99.90
29185;DHT22;16233;47.964;-3.842;2022-09-09T07:50:01;16.50;99.90
29185;DHT22;16233;47.964;-3.842;2022-09-09T07:52:03;16.40;99.90
29185;DHT22;16233;47.964;-3.842;2022-09-09T07:54:06;16.30;99.90
29185;DHT22;16233;47.964;-3.842;2022-09-09T07:56:10;16.30;99.90
29185;DHT22;16233;47.964;-3.842;2022-09-09T07:58:11;16.20;99.90
29185;DHT22;16233;47.964;-3.842;2022-09-09T08:00:15;16.20;99.90
29185;DHT22;16233;47.964;-3.842;2022-09-09T08:02:16;16.10;99.90
29185;DHT22;16233;47.964;-3.842;2022-09-09T08:04:18;16.10;99.90
29185;DHT22;16233;47.964;-3.842;2022-09-09T08:06:19;16.10;99.90
29185;DHT22;16233;47.964;-3.842;2022-09-09T08:08:20;16.10;99.90
29185;DHT22;16233;47.964;-3.842;2022-09-09T08:10:21;16.20;99.90
29185;DHT22;16233;47.964;-3.842;2022-09-09T08:12:22;16.20;99.90
29185;DHT22;16233;47.964;-3.842;2022-09-09T08:14:24;16.30;99.90
29185;DHT22;16233;47.964;-3.842;2022-09-09T08:16:27;16.40;99.90
29185;DHT22;16233;47.964;-3.842;2022-09-09T08:18:29;16.50;99.90
29185;DHT22;16233;47.964;-3.842;2022-09-09T08:20:30;16.60;99.90
29185;DHT22;16233;47.964;-3.842;2022-09-09T08:22:31;16.60;99.90
29185;DHT22;16233;47.964;-3.842;2022-09-09T08:26:34;16.60;99.90
29185;DHT22;16233;47.964;-3.842;2022-09-09T08:28:35;16.60;99.90
29185;DHT22;16233;47.964;-3.842;2022-09-09T08:30:36;16.60;99.90
29185;DHT22;16233;47.964;-3.842;2022-09-09T08:32:39;16.50;99.90
29185;DHT22;16233;47.964;-3.842;2022-09-09T08:34:40;16.50;99.90
29185;DHT22;16233;47.964;-3.842;2022-09-09T08:36:43;16.40;99.90
29185;DHT22;16233;47.964;-3.842;2022-09-09T08:38:47;16.40;99.90
29185;DHT22;16233;47.964;-3.842;2022-09-09T08:40:50;16.30;99.90
29185;DHT22;16233;47.964;-3.842;2022-09-09T08:42:55;16.30;99.90
29185;DHT22;16233;47.964;-3.842;2022-09-09T08:45:28;16.40;99.90
29185;DHT22;16233;47.964;-3.842;2022-09-09T08:47:34;16.50;99.90
29185;DHT22;16233;47.964;-3.842;2022-09-09T08:50:01;16.50;99.90
29185;DHT22;16233;47.964;-3.842;2022-09-09T08:52:05;16.70;99.90
29185;DHT22;16233;47.964;-3.842;2022-09-09T08:54:09;17.00;99.90
29185;DHT22;16233;47.964;-3.842;2022-09-09T08:56:13;17.30;99.90
29185;DHT22;16233;47.964;-3.842;2022-09-09T08:58:16;17.60;99.90
29185;DHT22;16233;47.964;-3.842;2022-09-09T09:00:19;17.70;99.90
29185;DHT22;16233;47.964;-3.842;2022-09-09T09:02:24;17.70;99.90
29185;DHT22;16233;47.964;-3.842;2022-09-09T09:04:52;17.50;99.90
29185;DHT22;16233;47.964;-3.842;2022-09-09T09:07:04;17.40;99.90
29185;DHT22;16233;47.964;-3.842;2022-09-09T09:09:13;17.20;99.90
29185;DHT22;16233;47.964;-3.842;2022-09-09T09:11:18;17.10;99.90
29185;DHT22;16233;47.964;-3.842;2022-09-09T09:13:22;17.00;99.90
29185;DHT22;16233;47.964;-3.842;2022-09-09T09:15:26;17.00;99.90
29185;DHT22;16233;47.964;-3.842;2022-09-09T09:17:37;16.90;99.90
29185;DHT22;16233;47.964;-3.842;2022-09-09T09:19:39;16.90;99.90
29185;DHT22;16233;47.964;-3.842;2022-09-09T09:21:44;16.80;99.90
29185;DHT22;16233;47.964;-3.842;2022-09-09T09:23:49;16.80;99.90
29185;DHT22;16233;47.964;-3.842;2022-09-09T09:25:56;16.70;99.90
29185;DHT22;16233;47.964;-3.842;2022-09-09T09:28:00;16.70;99.90
29185;DHT22;16233;47.964;-3.842;2022-09-09T09:30:12;16.70;99.90
29185;DHT22;16233;47.964;-3.842;2022-09-09T09:32:17;16.80;99.90
29185;DHT22;16233;47.964;-3.842;2022-09-09T09:34:19;16.90;99.90
29185;DHT22;16233;47.964;-3.842;2022-09-09T09:36:20;16.90;99.90
29185;DHT22;16233;47.964;-3.842;2022-09-09T09:38:27;17.00;99.90
29185;DHT22;16233;47.964;-3.842;2022-09-09T09:40:28;17.00;99.90
29185;DHT22;16233;47.964;-3.842;2022-09-09T09:42:29;17.00;99.90
29185;DHT22;16233;47.964;-3.842;2022-09-09T09:44:32;17.00;99.90
29185;DHT22;16233;47.964;-3.842;2022-09-09T09:46:33;17.00;99.90
29185;DHT22;16233;47.964;-3.842;2022-09-09T09:48:34;17.00;99.90
29185;DHT22;16233;47.964;-3.842;2022-09-09T09:50:35;17.00;99.90
29185;DHT22;16233;47.964;-3.842;2022-09-09T09:52:41;17.10;99.90
29185;DHT22;16233;47.964;-3.842;2022-09-09T09:54:44;17.10;99.90
29185;DHT22;16233;47.964;-3.842;2022-09-09T09:56:45;17.20;99.90
29185;DHT22;16233;47.964;-3.842;2022-09-09T09:58:51;17.30;99.90
29185;DHT22;16233;47.964;-3.842;2022-09-09T10:00:53;17.20;99.90
29185;DHT22;16233;47.964;-3.842;2022-09-09T10:02:54;17.30;99.90
29185;DHT22;16233;47.964;-3.842;2022-09-09T10:05:04;17.20;99.90
29185;DHT22;16233;47.964;-3.842;2022-09-09T10:07:11;17.10;99.90
29185;DHT22;16233;47.964;-3.842;2022-09-09T10:09:21;17.10;99.90
29185;DHT22;16233;47.964;-3.842;2022-09-09T10:11:35;16.90;99.90
29185;DHT22;16233;47.964;-3.842;2022-09-09T10:13:43;16.80;99.90
29185;DHT22;16233;47.964;-3.842;2022-09-09T10:15:53;16.70;99.90
29185;DHT22;16233;47.964;-3.842;2022-09-09T10:18:10;16.60;99.90
29185;DHT22;16233;47.964;-3.842;2022-09-09T10:20:20;16.50;99.90
29185;DHT22;16233;47.964;-3.842;2022-09-09T10:22:26;16.50;99.90
29185;DHT22;16233;47.964;-3.842;2022-09-09T10:24:50;16.50;99.90
29185;DHT22;16233;47.964;-3.842;2022-09-09T10:27:01;16.40;99.90
29185;DHT22;16233;47.964;-3.842;2022-09-09T10:29:16;16.40;99.90
29185;DHT22;16233;47.964;-3.842;2022-09-09T10:31:24;16.50;99.90
29185;DHT22;16233;47.964;-3.842;2022-09-09T10:33:30;16.40;99.90
29185;DHT22;16233;47.964;-3.842;2022-09-09T10:35:35;16.50;99.90
29185;DHT22;16233;47.964;-3.842;2022-09-09T10:37:56;16.50;99.90
29185;DHT22;16233;47.964;-3.842;2022-09-09T10:40:11;16.60;99.90
29185;DHT22;16233;47.964;-3.842;2022-09-09T10:42:17;16.70;99.90
29185;DHT22;16233;47.964;-3.842;2022-09-09T10:44:36;16.80;99.90
29185;DHT22;16233;47.964;-3.842;2022-09-09T10:46:50;16.90;99.90
29185;DHT22;16233;47.964;-3.842;2022-09-09T10:49:03;17.00;99.90
29185;DHT22;16233;47.964;-3.842;2022-09-09T10:51:30;17.20;99.90
29185;DHT22;16233;47.964;-3.842;2022-09-09T10:53:37;17.30;99.90
29185;DHT22;16233;47.964;-3.842;2022-09-09T10:55:45;17.40;99.90
29185;DHT22;16233;47.964;-3.842;2022-09-09T10:57:51;17.60;99.90
29185;DHT22;16233;47.964;-3.842;2022-09-09T10:59:56;17.80;99.90
29185;DHT22;16233;47.964;-3.842;2022-09-09T11:02:02;18.00;99.90
29185;DHT22;16233;47.964;-3.842;2022-09-09T11:04:09;18.10;99.90
29185;DHT22;16233;47.964;-3.842;2022-09-09T11:06:14;18.20;99.90
29185;DHT22;16233;47.964;-3.842;2022-09-09T11:08:19;18.30;99.90
29185;DHT22;16233;47.964;-3.842;2022-09-09T11:10:25;18.30;99.90
29185;DHT22;16233;47.964;-3.842;2022-09-09T11:12:30;18.40;99.90
29185;DHT22;16233;47.964;-3.842;2022-09-09T11:14:36;18.40;99.90
29185;DHT22;16233;47.964;-3.842;2022-09-09T11:16:41;18.50;99.90
29185;DHT22;16233;47.964;-3.842;2022-09-09T11:18:44;18.60;99.90
29185;DHT22;16233;47.964;-3.842;2022-09-09T11:20:48;18.80;99.90
29185;DHT22;16233;47.964;-3.842;2022-09-09T11:22:52;18.80;99.90
29185;DHT22;16233;47.964;-3.842;2022-09-09T11:24:57;18.80;99.90
29185;DHT22;16233;47.964;-3.842;2022-09-09T11:27:02;18.80;99.90
29185;DHT22;16233;47.964;-3.842;2022-09-09T11:29:17;18.80;99.90
29185;DHT22;16233;47.964;-3.842;2022-09-09T11:31:38;18.70;99.90
29185;DHT22;16233;47.964;-3.842;2022-09-09T11:33:53;18.70;99.90
29185;DHT22;16233;47.964;-3.842;2022-09-09T11:38:40;19.40;99.90
29185;DHT22;16233;47.964;-3.842;2022-09-09T11:40:45;19.50;99.90
29185;DHT22;16233;47.964;-3.842;2022-09-09T11:42:47;19.90;99.90
29185;DHT22;16233;47.964;-3.842;2022-09-09T11:44:49;20.00;99.90
29185;DHT22;16233;47.964;-3.842;2022-09-09T11:46:51;20.00;99.90
29185;DHT22;16233;47.964;-3.842;2022-09-09T11:48:59;19.90;99.90
29185;DHT22;16233;47.964;-3.842;2022-09-09T11:51:03;19.90;99.90
29185;DHT22;16233;47.964;-3.842;2022-09-09T11:53:19;20.00;99.90
29185;DHT22;16233;47.964;-3.842;2022-09-09T11:55:25;19.90;99.90
29185;DHT22;16233;47.964;-3.842;2022-09-09T11:57:32;19.70;99.90
29185;DHT22;16233;47.964;-3.842;2022-09-09T11:59:35;19.60;99.90
29185;DHT22;16233;47.964;-3.842;2022-09-09T12:01:38;19.50;99.90
29185;DHT22;16233;47.964;-3.842;2022-09-09T12:03:43;19.40;99.90
29185;DHT22;16233;47.964;-3.842;2022-09-09T12:05:46;19.60;99.90
29185;DHT22;16233;47.964;-3.842;2022-09-09T12:07:51;20.00;99.90
29185;DHT22;16233;47.964;-3.842;2022-09-09T12:09:56;20.30;99.90
29185;DHT22;16233;47.964;-3.842;2022-09-09T12:12:07;20.60;99.90
29185;DHT22;16233;47.964;-3.842;2022-09-09T12:14:20;20.90;99.90
29185;DHT22;16233;47.964;-3.842;2022-09-09T12:16:30;21.20;99.90
29185;DHT22;16233;47.964;-3.842;2022-09-09T12:18:33;21.60;99.90
29185;DHT22;16233;47.964;-3.842;2022-09-09T12:20:37;21.80;99.90
29185;DHT22;16233;47.964;-3.842;2022-09-09T12:22:49;22.10;99.90
29185;DHT22;16233;47.964;-3.842;2022-09-09T12:24:57;22.00;99.90
29185;DHT22;16233;47.964;-3.842;2022-09-09T12:27:06;21.60;99.90
29185;DHT22;16233;47.964;-3.842;2022-09-09T12:29:21;21.20;99.90
29185;DHT22;16233;47.964;-3.842;2022-09-09T12:31:27;21.00;99.90
29185;DHT22;16233;47.964;-3.842;2022-09-09T12:33:35;21.00;99.90
29185;DHT22;16233;47.964;-3.842;2022-09-09T12:35:38;21.40;99.90
29185;DHT22;16233;47.964;-3.842;2022-09-09T12:37:41;21.50;99.90
29185;DHT22;16233;47.964;-3.842;2022-09-09T12:39:45;21.60;99.90
29185;DHT22;16233;47.964;-3.842;2022-09-09T12:41:54;21.80;99.90
29185;DHT22;16233;47.964;-3.842;2022-09-09T12:44:03;22.40;99.90
29185;DHT22;16233;47.964;-3.842;2022-09-09T12:46:13;22.80;99.90
29185;DHT22;16233;47.964;-3.842;2022-09-09T12:48:18;23.00;84.40
29185;DHT22;16233;47.964;-3.842;2022-09-09T12:50:22;22.80;57.30
29185;DHT22;16233;47.964;-3.842;2022-09-09T12:52:27;22.80;17.90
29185;DHT22;16233;47.964;-3.842;2022-09-09T12:54:29;23.10;36.10
29185;DHT22;16233;47.964;-3.842;2022-09-09T12:56:32;23.40;22.50
29185;DHT22;16233;47.964;-3.842;2022-09-09T12:58:35;23.60;16.30
29185;DHT22;16233;47.964;-3.842;2022-09-09T13:00:36;23.70;22.90
29185;DHT22;16233;47.964;-3.842;2022-09-09T13:02:46;23.50;2.90
29185;DHT22;16233;47.964;-3.842;2022-09-09T13:04:47;23.00;1.00